sensor_id;sensor_type;location;lat;lon;timestamp;P1;durP1;ratioP1;P2;durP2;ratioP2
74538;SDS011;66042;51.090;-115.340;2023-05-10T00:01:13;5.00;;;1.80;;
74538;SDS011;66042;51.090;-115.340;2023-05-10T00:03:39;6.70;;;2.00;;
74538;SDS011;66042;51.090;-115.340;2023-05-10T00:06:06;5.60;;;1.60;;
74538;SDS011;66042;51.090;-115.340;2023-05-10T00:08:33;2.60;;;1.30;;
74538;SDS011;66042;51.090;-115.340;2023-05-10T00:11:01;2.90;;;1.30;;
74538;SDS011;66042;51.090;-115.340;2023-05-10T00:13:28;3.80;;;2.30;;
74538;SDS011;66042;51.090;-115.340;2023-05-10T00:15:55;3.30;;;1.70;;
74538;SDS011;66042;51.090;-115.340;2023-05-10T00:18:22;5.30;;;2.00;;
74538;SDS011;66042;51.090;-115.340;2023-05-10T00:20:49;3.20;;;1.60;;
74538;SDS011;66042;51.090;-115.340;2023-05-10T00:23:16;3.30;;;1.80;;
74538;SDS011;66042;51.090;-115.340;2023-05-10T00:25:43;4.30;;;1.80;;
74538;SDS011;66042;51.090;-115.340;2023-05-10T00:28:10;3.50;;;1.70;;
74538;SDS011;66042;51.090;-115.340;2023-05-10T00:30:37;4.40;;;2.00;;
74538;SDS011;66042;51.090;-115.340;2023-05-10T00:33:04;3.50;;;1.60;;
74538;SDS011;66042;51.090;-115.340;2023-05-10T00:35:31;5.10;;;1.20;;
74538;SDS011;66042;51.090;-115.340;2023-05-10T00:37:58;4.60;;;1.50;;
74538;SDS011;66042;51.090;-115.340;2023-05-10T00:40:24;9.50;;;1.70;;
74538;SDS011;66042;51.090;-115.340;2023-05-10T00:42:51;3.10;;;1.50;;
74538;SDS011;66042;51.090;-115.340;2023-05-10T00:45:19;3.70;;;1.50;;
74538;SDS011;66042;51.090;-115.340;2023-05-10T00:47:46;3.70;;;1.70;;
74538;SDS011;66042;51.090;-115.340;2023-05-10T00:50:14;3.20;;;1.30;;
74538;SDS011;66042;51.090;-115.340;2023-05-10T00:52:42;5.20;;;1.80;;
74538;SDS011;66042;51.090;-115.340;2023-05-10T00:55:10;4.80;;;1.40;;
74538;SDS011;66042;51.090;-115.340;2023-05-10T00:57:39;3.40;;;1.50;;
74538;SDS011;66042;51.090;-115.340;2023-05-10T01:00:06;2.80;;;1.50;;
74538;SDS011;66042;51.090;-115.340;2023-05-10T01:02:34;3.80;;;1.70;;
74538;SDS011;66042;51.090;-115.340;2023-05-10T01:05:02;2.80;;;1.40;;
74538;SDS011;66042;51.090;-115.340;2023-05-10T01:07:30;3.30;;;1.70;;
74538;SDS011;66042;51.090;-115.340;2023-05-10T01:09:57;3.30;;;1.80;;
74538;SDS011;66042;51.090;-115.340;2023-05-10T01:12:24;4.10;;;1.50;;
74538;SDS011;66042;51.090;-115.340;2023-05-10T01:14:52;2.60;;;1.10;;
74538;SDS011;66042;51.090;-115.340;2023-05-10T01:17:21;3.40;;;1.50;;
74538;SDS011;66042;51.090;-115.340;2023-05-10T01:19:49;3.30;;;1.30;;
74538;SDS011;66042;51.090;-115.340;2023-05-10T01:28:17;3.50;;;1.40;;
74538;SDS011;66042;51.090;-115.340;2023-05-10T01:31:29;2.90;;;1.30;;
74538;SDS011;66042;51.090;-115.340;2023-05-10T01:34:16;3.50;;;1.60;;
74538;SDS011;66042;51.090;-115.340;2023-05-10T01:36:59;3.60;;;1.40;;
74538;SDS011;66042;51.090;-115.340;2023-05-10T01:40:00;3.30;;;1.60;;
74538;SDS011;66042;51.090;-115.340;2023-05-10T01:42:44;3.60;;;1.60;;
74538;SDS011;66042;51.090;-115.340;2023-05-10T01:45:38;3.20;;;1.80;;
74538;SDS011;66042;51.090;-115.340;2023-05-10T01:48:30;2.70;;;1.30;;
74538;SDS011;66042;51.090;-115.340;2023-05-10T01:50:58;5.00;;;1.70;;
74538;SDS011;66042;51.090;-115.340;2023-05-10T01:53:26;3.20;;;1.60;;
74538;SDS011;66042;51.090;-115.340;2023-05-10T01:55:55;3.00;;;1.60;;
74538;SDS011;66042;51.090;-115.340;2023-05-10T01:58:30;3.30;;;1.50;;
74538;SDS011;66042;51.090;-115.340;2023-05-10T02:01:01;3.20;;;1.60;;
74538;SDS011;66042;51.090;-115.340;2023-05-10T02:03:31;3.10;;;1.50;;
74538;SDS011;66042;51.090;-115.340;2023-05-10T02:06:02;3.40;;;1.50;;
74538;SDS011;66042;51.090;-115.340;2023-05-10T02:08:30;3.10;;;1.60;;
74538;SDS011;66042;51.090;-115.340;2023-05-10T02:10:59;4.20;;;2.00;;
74538;SDS011;66042;51.090;-115.340;2023-05-10T02:13:29;3.40;;;2.10;;
74538;SDS011;66042;51.090;-115.340;2023-05-10T02:15:59;4.70;;;1.80;;
74538;SDS011;66042;51.090;-115.340;2023-05-10T02:18:27;3.30;;;1.80;;
74538;SDS011;66042;51.090;-115.340;2023-05-10T02:20:56;3.40;;;1.70;;
74538;SDS011;66042;51.090;-115.340;2023-05-10T02:23:26;3.20;;;1.80;;
74538;SDS011;66042;51.090;-115.340;2023-05-10T02:25:55;4.00;;;1.50;;
74538;SDS011;66042;51.090;-115.340;2023-05-10T02:28:23;3.50;;;1.30;;
74538;SDS011;66042;51.090;-115.340;2023-05-10T02:30:53;5.00;;;1.90;;
74538;SDS011;66042;51.090;-115.340;2023-05-10T02:33:21;4.00;;;1.90;;
74538;SDS011;66042;51.090;-115.340;2023-05-10T02:35:50;3.90;;;1.60;;
74538;SDS011;66042;51.090;-115.340;2023-05-10T02:38:20;4.80;;;2.10;;
74538;SDS011;66042;51.090;-115.340;2023-05-10T02:40:48;4.50;;;1.70;;
74538;SDS011;66042;51.090;-115.340;2023-05-10T02:43:17;5.70;;;2.20;;
74538;SDS011;66042;51.090;-115.340;2023-05-10T02:45:47;5.40;;;1.90;;
74538;SDS011;66042;51.090;-115.340;2023-05-10T02:48:15;5.60;;;2.10;;
74538;SDS011;66042;51.090;-115.340;2023-05-10T02:50:44;8.80;;;2.00;;
74538;SDS011;66042;51.090;-115.340;2023-05-10T02:53:27;3.60;;;1.80;;
74538;SDS011;66042;51.090;-115.340;2023-05-10T02:56:00;4.70;;;2.00;;
74538;SDS011;66042;51.090;-115.340;2023-05-10T02:58:35;5.40;;;1.80;;
74538;SDS011;66042;51.090;-115.340;2023-05-10T03:01:02;5.60;;;1.80;;
74538;SDS011;66042;51.090;-115.340;2023-05-10T03:03:28;4.30;;;1.70;;
74538;SDS011;66042;51.090;-115.340;2023-05-10T03:05:55;3.90;;;2.10;;
74538;SDS011;66042;51.090;-115.340;2023-05-10T03:08:23;3.90;;;1.80;;
74538;SDS011;66042;51.090;-115.340;2023-05-10T03:17:25;4.60;;;2.00;;
74538;SDS011;66042;51.090;-115.340;2023-05-10T03:20:03;4.80;;;2.30;;
74538;SDS011;66042;51.090;-115.340;2023-05-10T03:22:47;6.90;;;3.00;;
74538;SDS011;66042;51.090;-115.340;2023-05-10T03:25:21;5.70;;;2.90;;
74538;SDS011;66042;51.090;-115.340;2023-05-10T03:27:49;6.00;;;3.30;;
74538;SDS011;66042;51.090;-115.340;2023-05-10T03:30:18;6.40;;;3.20;;
74538;SDS011;66042;51.090;-115.340;2023-05-10T03:32:45;6.00;;;3.40;;
74538;SDS011;66042;51.090;-115.340;2023-05-10T03:35:13;5.40;;;3.10;;
74538;SDS011;66042;51.090;-115.340;2023-05-10T03:37:40;5.50;;;3.00;;
74538;SDS011;66042;51.090;-115.340;2023-05-10T03:40:07;7.70;;;3.50;;
74538;SDS011;66042;51.090;-115.340;2023-05-10T03:42:36;6.60;;;3.70;;
74538;SDS011;66042;51.090;-115.340;2023-05-10T03:45:02;6.70;;;3.50;;
74538;SDS011;66042;51.090;-115.340;2023-05-10T03:47:32;5.30;;;3.20;;
74538;SDS011;66042;51.090;-115.340;2023-05-10T03:49:59;6.40;;;3.00;;
74538;SDS011;66042;51.090;-115.340;2023-05-10T03:52:26;5.80;;;3.10;;
74538;SDS011;66042;51.090;-115.340;2023-05-10T03:54:52;6.10;;;3.10;;
74538;SDS011;66042;51.090;-115.340;2023-05-10T03:57:19;6.20;;;2.80;;
74538;SDS011;66042;51.090;-115.340;2023-05-10T03:59:46;6.00;;;3.00;;
74538;SDS011;66042;51.090;-115.340;2023-05-10T04:02:12;6.00;;;3.30;;
74538;SDS011;66042;51.090;-115.340;2023-05-10T04:04:39;5.90;;;3.20;;
74538;SDS011;66042;51.090;-115.340;2023-05-10T04:07:05;6.00;;;3.10;;
74538;SDS011;66042;51.090;-115.340;2023-05-10T04:09:32;5.40;;;3.20;;
74538;SDS011;66042;51.090;-115.340;2023-05-10T04:11:59;5.50;;;3.10;;
74538;SDS011;66042;51.090;-115.340;2023-05-10T04:14:28;8.20;;;3.00;;
74538;SDS011;66042;51.090;-115.340;2023-05-10T04:16:55;4.90;;;2.90;;
74538;SDS011;66042;51.090;-115.340;2023-05-10T04:19:22;5.70;;;3.20;;
74538;SDS011;66042;51.090;-115.340;2023-05-10T04:21:49;5.70;;;3.10;;
74538;SDS011;66042;51.090;-115.340;2023-05-10T04:24:15;5.90;;;3.30;;
74538;SDS011;66042;51.090;-115.340;2023-05-10T04:26:42;6.10;;;2.80;;
74538;SDS011;66042;51.090;-115.340;2023-05-10T04:29:08;2.60;;;1.30;;
74538;SDS011;66042;51.090;-115.340;2023-05-10T04:31:35;3.10;;;1.40;;
74538;SDS011;66042;51.090;-115.340;2023-05-10T04:34:06;1.70;;;0.60;;
74538;SDS011;66042;51.090;-115.340;2023-05-10T04:36:36;1.70;;;0.80;;
74538;SDS011;66042;51.090;-115.340;2023-05-10T04:39:03;1.50;;;0.60;;
74538;SDS011;66042;51.090;-115.340;2023-05-10T04:41:30;2.30;;;0.60;;
74538;SDS011;66042;51.090;-115.340;2023-05-10T04:43:57;1.80;;;0.80;;
74538;SDS011;66042;51.090;-115.340;2023-05-10T04:46:24;1.60;;;0.70;;
74538;SDS011;66042;51.090;-115.340;2023-05-10T04:48:51;1.50;;;0.70;;
74538;SDS011;66042;51.090;-115.340;2023-05-10T04:51:18;2.70;;;0.60;;
74538;SDS011;66042;51.090;-115.340;2023-05-10T04:53:44;2.40;;;1.00;;
74538;SDS011;66042;51.090;-115.340;2023-05-10T04:56:11;1.70;;;0.80;;
74538;SDS011;66042;51.090;-115.340;2023-05-10T04:58:41;1.30;;;0.50;;
74538;SDS011;66042;51.090;-115.340;2023-05-10T05:01:08;1.70;;;0.80;;
74538;SDS011;66042;51.090;-115.340;2023-05-10T05:03:36;1.10;;;0.40;;
74538;SDS011;66042;51.090;-115.340;2023-05-10T05:06:03;1.40;;;0.60;;
74538;SDS011;66042;51.090;-115.340;2023-05-10T05:08:30;1.60;;;0.60;;
74538;SDS011;66042;51.090;-115.340;2023-05-10T05:10:57;1.40;;;0.60;;
74538;SDS011;66042;51.090;-115.340;2023-05-10T05:13:25;2.70;;;0.50;;
74538;SDS011;66042;51.090;-115.340;2023-05-10T05:15:52;1.80;;;0.50;;
74538;SDS011;66042;51.090;-115.340;2023-05-10T05:18:22;1.90;;;0.50;;
74538;SDS011;66042;51.090;-115.340;2023-05-10T05:20:49;2.60;;;0.80;;
74538;SDS011;66042;51.090;-115.340;2023-05-10T05:23:17;1.40;;;0.50;;
74538;SDS011;66042;51.090;-115.340;2023-05-10T05:25:44;1.70;;;0.70;;
74538;SDS011;66042;51.090;-115.340;2023-05-10T05:28:11;2.50;;;0.80;;
74538;SDS011;66042;51.090;-115.340;2023-05-10T05:30:38;1.50;;;0.70;;
74538;SDS011;66042;51.090;-115.340;2023-05-10T05:33:05;2.00;;;0.80;;
74538;SDS011;66042;51.090;-115.340;2023-05-10T05:35:32;2.30;;;0.70;;
74538;SDS011;66042;51.090;-115.340;2023-05-10T05:37:59;2.00;;;0.50;;
74538;SDS011;66042;51.090;-115.340;2023-05-10T05:40:28;2.10;;;1.00;;
74538;SDS011;66042;51.090;-115.340;2023-05-10T05:42:55;2.00;;;0.80;;
74538;SDS011;66042;51.090;-115.340;2023-05-10T05:45:22;1.80;;;0.90;;
74538;SDS011;66042;51.090;-115.340;2023-05-10T05:47:49;1.60;;;0.60;;
74538;SDS011;66042;51.090;-115.340;2023-05-10T05:50:15;1.90;;;0.90;;
74538;SDS011;66042;51.090;-115.340;2023-05-10T05:52:42;2.10;;;0.80;;
74538;SDS011;66042;51.090;-115.340;2023-05-10T05:55:09;1.90;;;0.90;;
74538;SDS011;66042;51.090;-115.340;2023-05-10T05:57:35;1.70;;;0.70;;
74538;SDS011;66042;51.090;-115.340;2023-05-10T06:00:03;2.50;;;0.90;;
74538;SDS011;66042;51.090;-115.340;2023-05-10T06:02:30;1.90;;;0.90;;
74538;SDS011;66042;51.090;-115.340;2023-05-10T06:04:57;1.80;;;0.90;;
74538;SDS011;66042;51.090;-115.340;2023-05-10T06:07:24;1.90;;;0.80;;
74538;SDS011;66042;51.090;-115.340;2023-05-10T06:09:51;1.70;;;0.80;;
74538;SDS011;66042;51.090;-115.340;2023-05-10T06:12:18;2.50;;;0.70;;
74538;SDS011;66042;51.090;-115.340;2023-05-10T06:14:46;2.10;;;0.90;;
74538;SDS011;66042;51.090;-115.340;2023-05-10T06:17:13;1.90;;;0.90;;
74538;SDS011;66042;51.090;-115.340;2023-05-10T06:19:39;2.10;;;1.10;;
74538;SDS011;66042;51.090;-115.340;2023-05-10T06:22:06;1.90;;;1.00;;
74538;SDS011;66042;51.090;-115.340;2023-05-10T06:24:33;1.80;;;1.10;;
74538;SDS011;66042;51.090;-115.340;2023-05-10T06:26:59;3.20;;;0.90;;
74538;SDS011;66042;51.090;-115.340;2023-05-10T06:29:27;2.30;;;1.20;;
74538;SDS011;66042;51.090;-115.340;2023-05-10T06:31:54;3.60;;;1.40;;
74538;SDS011;66042;51.090;-115.340;2023-05-10T06:34:20;3.50;;;1.00;;
74538;SDS011;66042;51.090;-115.340;2023-05-10T06:36:47;2.40;;;1.00;;
74538;SDS011;66042;51.090;-115.340;2023-05-10T06:39:14;2.30;;;1.20;;
74538;SDS011;66042;51.090;-115.340;2023-05-10T06:41:42;2.40;;;1.10;;
74538;SDS011;66042;51.090;-115.340;2023-05-10T06:44:09;4.00;;;1.30;;
74538;SDS011;66042;51.090;-115.340;2023-05-10T06:46:36;1.80;;;1.00;;
74538;SDS011;66042;51.090;-115.340;2023-05-10T06:49:02;4.70;;;1.60;;
74538;SDS011;66042;51.090;-115.340;2023-05-10T06:51:30;3.50;;;1.50;;
74538;SDS011;66042;51.090;-115.340;2023-05-10T06:53:58;4.30;;;1.70;;
74538;SDS011;66042;51.090;-115.340;2023-05-10T06:56:26;4.20;;;2.00;;
74538;SDS011;66042;51.090;-115.340;2023-05-10T06:58:53;3.10;;;1.90;;
74538;SDS011;66042;51.090;-115.340;2023-05-10T07:01:20;2.90;;;1.50;;
74538;SDS011;66042;51.090;-115.340;2023-05-10T07:03:47;3.90;;;1.60;;
74538;SDS011;66042;51.090;-115.340;2023-05-10T07:06:13;3.50;;;1.60;;
74538;SDS011;66042;51.090;-115.340;2023-05-10T07:08:40;4.00;;;1.80;;
74538;SDS011;66042;51.090;-115.340;2023-05-10T07:11:07;3.10;;;1.80;;
74538;SDS011;66042;51.090;-115.340;2023-05-10T07:13:34;3.30;;;1.80;;
74538;SDS011;66042;51.090;-115.340;2023-05-10T07:16:02;3.40;;;1.50;;
74538;SDS011;66042;51.090;-115.340;2023-05-10T07:18:30;4.30;;;1.60;;
74538;SDS011;66042;51.090;-115.340;2023-05-10T07:20:57;2.70;;;1.40;;
74538;SDS011;66042;51.090;-115.340;2023-05-10T07:23:24;2.60;;;1.20;;
74538;SDS011;66042;51.090;-115.340;2023-05-10T07:25:52;2.60;;;1.40;;
74538;SDS011;66042;51.090;-115.340;2023-05-10T07:28:19;2.40;;;1.30;;
74538;SDS011;66042;51.090;-115.340;2023-05-10T07:30:46;2.50;;;1.00;;
74538;SDS011;66042;51.090;-115.340;2023-05-10T07:33:14;1.80;;;1.00;;
74538;SDS011;66042;51.090;-115.340;2023-05-10T07:35:42;2.90;;;1.30;;
74538;SDS011;66042;51.090;-115.340;2023-05-10T07:38:09;2.50;;;1.20;;
74538;SDS011;66042;51.090;-115.340;2023-05-10T07:40:40;2.40;;;0.90;;
74538;SDS011;66042;51.090;-115.340;2023-05-10T07:43:07;2.10;;;1.10;;
74538;SDS011;66042;51.090;-115.340;2023-05-10T07:45:34;2.40;;;1.20;;
74538;SDS011;66042;51.090;-115.340;2023-05-10T07:48:01;2.00;;;0.90;;
74538;SDS011;66042;51.090;-115.340;2023-05-10T07:50:27;2.50;;;1.30;;
74538;SDS011;66042;51.090;-115.340;2023-05-10T07:52:54;2.60;;;1.50;;
74538;SDS011;66042;51.090;-115.340;2023-05-10T07:55:20;3.10;;;1.40;;
74538;SDS011;66042;51.090;-115.340;2023-05-10T07:57:48;3.70;;;1.90;;
74538;SDS011;66042;51.090;-115.340;2023-05-10T08:00:18;3.40;;;2.00;;
74538;SDS011;66042;51.090;-115.340;2023-05-10T08:02:47;3.70;;;2.00;;
74538;SDS011;66042;51.090;-115.340;2023-05-10T08:05:14;3.50;;;1.70;;
74538;SDS011;66042;51.090;-115.340;2023-05-10T08:07:41;3.40;;;1.70;;
74538;SDS011;66042;51.090;-115.340;2023-05-10T08:10:08;4.10;;;2.30;;
74538;SDS011;66042;51.090;-115.340;2023-05-10T08:12:37;3.30;;;1.80;;
74538;SDS011;66042;51.090;-115.340;2023-05-10T08:15:05;4.90;;;2.00;;
74538;SDS011;66042;51.090;-115.340;2023-05-10T08:17:32;3.80;;;2.00;;
74538;SDS011;66042;51.090;-115.340;2023-05-10T08:19:59;3.30;;;1.50;;
74538;SDS011;66042;51.090;-115.340;2023-05-10T08:22:27;3.40;;;1.90;;
74538;SDS011;66042;51.090;-115.340;2023-05-10T08:24:54;4.50;;;2.10;;
74538;SDS011;66042;51.090;-115.340;2023-05-10T08:27:21;3.50;;;1.90;;
74538;SDS011;66042;51.090;-115.340;2023-05-10T08:29:50;4.10;;;1.90;;
74538;SDS011;66042;51.090;-115.340;2023-05-10T08:32:20;3.50;;;1.70;;
74538;SDS011;66042;51.090;-115.340;2023-05-10T08:34:47;3.20;;;1.70;;
74538;SDS011;66042;51.090;-115.340;2023-05-10T08:37:14;4.20;;;1.90;;
74538;SDS011;66042;51.090;-115.340;2023-05-10T08:39:41;3.80;;;1.50;;
74538;SDS011;66042;51.090;-115.340;2023-05-10T08:42:09;3.20;;;1.70;;
74538;SDS011;66042;51.090;-115.340;2023-05-10T08:44:37;3.10;;;1.40;;
74538;SDS011;66042;51.090;-115.340;2023-05-10T08:47:07;2.90;;;1.90;;
74538;SDS011;66042;51.090;-115.340;2023-05-10T08:49:37;3.80;;;1.60;;
74538;SDS011;66042;51.090;-115.340;2023-05-10T08:52:05;3.30;;;1.70;;
74538;SDS011;66042;51.090;-115.340;2023-05-10T08:54:34;4.10;;;1.60;;
74538;SDS011;66042;51.090;-115.340;2023-05-10T08:57:01;2.60;;;1.50;;
74538;SDS011;66042;51.090;-115.340;2023-05-10T08:59:29;2.60;;;1.50;;
74538;SDS011;66042;51.090;-115.340;2023-05-10T09:02:00;2.40;;;1.30;;
74538;SDS011;66042;51.090;-115.340;2023-05-10T09:04:28;2.50;;;1.20;;
74538;SDS011;66042;51.090;-115.340;2023-05-10T09:06:55;3.60;;;1.70;;
74538;SDS011;66042;51.090;-115.340;2023-05-10T09:09:23;2.90;;;1.30;;
74538;SDS011;66042;51.090;-115.340;2023-05-10T09:11:52;3.50;;;1.90;;
74538;SDS011;66042;51.090;-115.340;2023-05-10T09:14:19;3.00;;;1.80;;
74538;SDS011;66042;51.090;-115.340;2023-05-10T09:16:48;2.70;;;1.30;;
74538;SDS011;66042;51.090;-115.340;2023-05-10T09:19:14;2.50;;;1.10;;
74538;SDS011;66042;51.090;-115.340;2023-05-10T09:21:42;3.20;;;1.90;;
74538;SDS011;66042;51.090;-115.340;2023-05-10T09:24:09;3.00;;;1.40;;
74538;SDS011;66042;51.090;-115.340;2023-05-10T09:26:46;3.40;;;1.50;;
74538;SDS011;66042;51.090;-115.340;2023-05-10T09:29:16;2.50;;;1.30;;
74538;SDS011;66042;51.090;-115.340;2023-05-10T09:31:45;2.20;;;1.40;;
74538;SDS011;66042;51.090;-115.340;2023-05-10T09:34:31;3.60;;;1.10;;
74538;SDS011;66042;51.090;-115.340;2023-05-10T09:37:02;2.20;;;1.00;;
74538;SDS011;66042;51.090;-115.340;2023-05-10T09:39:34;2.40;;;1.30;;
74538;SDS011;66042;51.090;-115.340;2023-05-10T09:42:04;2.00;;;1.30;;
74538;SDS011;66042;51.090;-115.340;2023-05-10T09:44:34;1.40;;;0.80;;
74538;SDS011;66042;51.090;-115.340;2023-05-10T09:47:02;1.50;;;0.60;;
74538;SDS011;66042;51.090;-115.340;2023-05-10T09:49:30;2.00;;;1.00;;
74538;SDS011;66042;51.090;-115.340;2023-05-10T09:52:02;2.50;;;0.90;;
74538;SDS011;66042;51.090;-115.340;2023-05-10T09:54:32;1.60;;;0.60;;
74538;SDS011;66042;51.090;-115.340;2023-05-10T09:57:00;1.50;;;0.80;;
74538;SDS011;66042;51.090;-115.340;2023-05-10T09:59:28;1.30;;;0.70;;
74538;SDS011;66042;51.090;-115.340;2023-05-10T10:01:57;1.80;;;0.90;;
74538;SDS011;66042;51.090;-115.340;2023-05-10T10:04:26;1.90;;;0.90;;
74538;SDS011;66042;51.090;-115.340;2023-05-10T10:07:04;1.70;;;0.90;;
74538;SDS011;66042;51.090;-115.340;2023-05-10T10:09:32;1.80;;;0.80;;
74538;SDS011;66042;51.090;-115.340;2023-05-10T10:12:03;1.60;;;0.80;;
74538;SDS011;66042;51.090;-115.340;2023-05-10T10:14:30;1.30;;;0.70;;
74538;SDS011;66042;51.090;-115.340;2023-05-10T10:17:00;1.40;;;0.70;;
74538;SDS011;66042;51.090;-115.340;2023-05-10T10:19:28;1.10;;;0.60;;
74538;SDS011;66042;51.090;-115.340;2023-05-10T10:21:56;1.40;;;0.60;;
74538;SDS011;66042;51.090;-115.340;2023-05-10T10:24:25;1.20;;;0.50;;
74538;SDS011;66042;51.090;-115.340;2023-05-10T10:26:57;1.40;;;0.60;;
74538;SDS011;66042;51.090;-115.340;2023-05-10T10:35:19;1.30;;;0.60;;
74538;SDS011;66042;51.090;-115.340;2023-05-10T10:37:47;1.30;;;0.60;;
74538;SDS011;66042;51.090;-115.340;2023-05-10T10:40:34;1.70;;;0.80;;
74538;SDS011;66042;51.090;-115.340;2023-05-10T10:43:29;1.50;;;0.70;;
74538;SDS011;66042;51.090;-115.340;2023-05-10T10:46:13;1.70;;;0.70;;
74538;SDS011;66042;51.090;-115.340;2023-05-10T10:48:43;1.90;;;0.70;;
74538;SDS011;66042;51.090;-115.340;2023-05-10T10:51:14;1.10;;;0.50;;
74538;SDS011;66042;51.090;-115.340;2023-05-10T10:53:41;1.40;;;0.60;;
74538;SDS011;66042;51.090;-115.340;2023-05-10T10:56:13;1.30;;;0.70;;
74538;SDS011;66042;51.090;-115.340;2023-05-10T10:58:42;1.20;;;0.50;;
74538;SDS011;66042;51.090;-115.340;2023-05-10T11:01:20;1.80;;;0.50;;
74538;SDS011;66042;51.090;-115.340;2023-05-10T11:06:34;1.40;;;0.70;;
74538;SDS011;66042;51.090;-115.340;2023-05-10T11:09:09;1.20;;;0.60;;
74538;SDS011;66042;51.090;-115.340;2023-05-10T11:11:52;1.20;;;0.50;;
74538;SDS011;66042;51.090;-115.340;2023-05-10T11:14:25;1.40;;;0.90;;
74538;SDS011;66042;51.090;-115.340;2023-05-10T11:16:52;1.00;;;0.40;;
74538;SDS011;66042;51.090;-115.340;2023-05-10T11:19:19;1.00;;;0.50;;
74538;SDS011;66042;51.090;-115.340;2023-05-10T11:24:32;1.10;;;0.60;;
74538;SDS011;66042;51.090;-115.340;2023-05-10T11:27:01;1.20;;;0.50;;
74538;SDS011;66042;51.090;-115.340;2023-05-10T11:29:29;1.30;;;0.60;;
74538;SDS011;66042;51.090;-115.340;2023-05-10T11:31:58;2.00;;;0.50;;
74538;SDS011;66042;51.090;-115.340;2023-05-10T11:34:30;1.50;;;0.60;;
74538;SDS011;66042;51.090;-115.340;2023-05-10T11:36:59;1.30;;;0.50;;
74538;SDS011;66042;51.090;-115.340;2023-05-10T11:39:31;1.80;;;0.70;;
74538;SDS011;66042;51.090;-115.340;2023-05-10T11:41:59;2.10;;;0.60;;
74538;SDS011;66042;51.090;-115.340;2023-05-10T11:44:30;1.20;;;0.50;;
74538;SDS011;66042;51.090;-115.340;2023-05-10T11:47:01;1.60;;;0.70;;
74538;SDS011;66042;51.090;-115.340;2023-05-10T11:49:28;1.50;;;0.90;;
74538;SDS011;66042;51.090;-115.340;2023-05-10T11:52:06;1.20;;;0.60;;
74538;SDS011;66042;51.090;-115.340;2023-05-10T11:54:34;1.20;;;0.70;;
74538;SDS011;66042;51.090;-115.340;2023-05-10T11:57:01;1.60;;;0.50;;
74538;SDS011;66042;51.090;-115.340;2023-05-10T11:59:29;1.70;;;0.80;;
74538;SDS011;66042;51.090;-115.340;2023-05-10T12:01:56;1.40;;;0.60;;
74538;SDS011;66042;51.090;-115.340;2023-05-10T12:04:23;1.60;;;0.70;;
74538;SDS011;66042;51.090;-115.340;2023-05-10T12:06:51;2.30;;;0.50;;
74538;SDS011;66042;51.090;-115.340;2023-05-10T12:09:18;1.80;;;0.90;;
74538;SDS011;66042;51.090;-115.340;2023-05-10T12:11:45;1.20;;;0.60;;
74538;SDS011;66042;51.090;-115.340;2023-05-10T12:14:13;1.60;;;1.00;;
74538;SDS011;66042;51.090;-115.340;2023-05-10T12:16:43;1.70;;;0.70;;
74538;SDS011;66042;51.090;-115.340;2023-05-10T12:19:10;3.20;;;0.80;;
74538;SDS011;66042;51.090;-115.340;2023-05-10T12:21:36;2.60;;;0.80;;
74538;SDS011;66042;51.090;-115.340;2023-05-10T12:24:04;1.40;;;0.80;;
74538;SDS011;66042;51.090;-115.340;2023-05-10T12:26:32;1.70;;;0.70;;
74538;SDS011;66042;51.090;-115.340;2023-05-10T12:29:17;1.60;;;0.60;;
74538;SDS011;66042;51.090;-115.340;2023-05-10T12:31:56;1.60;;;0.80;;
74538;SDS011;66042;51.090;-115.340;2023-05-10T12:34:34;2.20;;;0.60;;
74538;SDS011;66042;51.090;-115.340;2023-05-10T12:37:04;2.00;;;0.80;;
74538;SDS011;66042;51.090;-115.340;2023-05-10T12:39:41;2.30;;;0.70;;
74538;SDS011;66042;51.090;-115.340;2023-05-10T12:42:09;2.40;;;0.50;;
74538;SDS011;66042;51.090;-115.340;2023-05-10T12:44:37;2.10;;;0.70;;
74538;SDS011;66042;51.090;-115.340;2023-05-10T12:47:04;1.70;;;0.70;;
74538;SDS011;66042;51.090;-115.340;2023-05-10T12:49:31;2.10;;;1.00;;
74538;SDS011;66042;51.090;-115.340;2023-05-10T12:51:58;2.10;;;0.70;;
74538;SDS011;66042;51.090;-115.340;2023-05-10T12:54:25;1.70;;;1.00;;
74538;SDS011;66042;51.090;-115.340;2023-05-10T12:56:53;1.60;;;0.50;;
74538;SDS011;66042;51.090;-115.340;2023-05-10T12:59:20;1.90;;;0.80;;
74538;SDS011;66042;51.090;-115.340;2023-05-10T13:01:48;1.10;;;0.60;;
74538;SDS011;66042;51.090;-115.340;2023-05-10T13:04:15;1.50;;;0.60;;
74538;SDS011;66042;51.090;-115.340;2023-05-10T13:06:42;1.50;;;0.70;;
74538;SDS011;66042;51.090;-115.340;2023-05-10T13:09:09;1.70;;;0.50;;
74538;SDS011;66042;51.090;-115.340;2023-05-10T13:11:36;2.00;;;0.70;;
74538;SDS011;66042;51.090;-115.340;2023-05-10T13:14:03;2.00;;;0.80;;
74538;SDS011;66042;51.090;-115.340;2023-05-10T13:16:30;1.80;;;0.60;;
74538;SDS011;66042;51.090;-115.340;2023-05-10T13:18:58;1.80;;;0.90;;
74538;SDS011;66042;51.090;-115.340;2023-05-10T13:21:25;1.50;;;0.80;;
74538;SDS011;66042;51.090;-115.340;2023-05-10T13:23:53;1.50;;;0.80;;
74538;SDS011;66042;51.090;-115.340;2023-05-10T13:26:20;1.30;;;0.50;;
74538;SDS011;66042;51.090;-115.340;2023-05-10T13:28:47;1.70;;;0.80;;
74538;SDS011;66042;51.090;-115.340;2023-05-10T13:31:14;1.50;;;0.60;;
74538;SDS011;66042;51.090;-115.340;2023-05-10T13:33:41;3.50;;;0.60;;
74538;SDS011;66042;51.090;-115.340;2023-05-10T13:36:08;2.30;;;1.00;;
74538;SDS011;66042;51.090;-115.340;2023-05-10T13:38:35;1.90;;;1.00;;
74538;SDS011;66042;51.090;-115.340;2023-05-10T13:41:02;3.10;;;0.80;;
74538;SDS011;66042;51.090;-115.340;2023-05-10T13:43:30;3.70;;;0.90;;
74538;SDS011;66042;51.090;-115.340;2023-05-10T13:45:58;2.60;;;0.90;;
74538;SDS011;66042;51.090;-115.340;2023-05-10T13:48:25;3.20;;;1.10;;
74538;SDS011;66042;51.090;-115.340;2023-05-10T13:50:52;1.50;;;0.70;;
74538;SDS011;66042;51.090;-115.340;2023-05-10T13:53:19;2.20;;;1.00;;
74538;SDS011;66042;51.090;-115.340;2023-05-10T13:55:47;2.00;;;1.00;;
74538;SDS011;66042;51.090;-115.340;2023-05-10T13:58:14;2.10;;;0.70;;
74538;SDS011;66042;51.090;-115.340;2023-05-10T14:00:41;2.00;;;0.90;;
74538;SDS011;66042;51.090;-115.340;2023-05-10T14:03:08;1.90;;;1.00;;
74538;SDS011;66042;51.090;-115.340;2023-05-10T14:05:36;2.30;;;1.10;;
74538;SDS011;66042;51.090;-115.340;2023-05-10T14:08:03;1.60;;;0.70;;
74538;SDS011;66042;51.090;-115.340;2023-05-10T14:10:31;2.70;;;0.90;;
74538;SDS011;66042;51.090;-115.340;2023-05-10T14:12:57;2.40;;;0.80;;
74538;SDS011;66042;51.090;-115.340;2023-05-10T14:15:24;2.30;;;1.30;;
74538;SDS011;66042;51.090;-115.340;2023-05-10T14:17:51;2.20;;;1.00;;
74538;SDS011;66042;51.090;-115.340;2023-05-10T14:20:18;3.20;;;1.20;;
74538;SDS011;66042;51.090;-115.340;2023-05-10T14:22:44;2.00;;;1.00;;
74538;SDS011;66042;51.090;-115.340;2023-05-10T14:25:12;2.20;;;1.00;;
74538;SDS011;66042;51.090;-115.340;2023-05-10T14:27:40;2.30;;;1.10;;
74538;SDS011;66042;51.090;-115.340;2023-05-10T14:30:07;1.90;;;0.80;;
74538;SDS011;66042;51.090;-115.340;2023-05-10T14:32:34;2.00;;;1.10;;
74538;SDS011;66042;51.090;-115.340;2023-05-10T14:35:02;3.20;;;0.90;;
74538;SDS011;66042;51.090;-115.340;2023-05-10T14:37:29;1.60;;;0.80;;
74538;SDS011;66042;51.090;-115.340;2023-05-10T14:39:56;1.80;;;1.00;;
74538;SDS011;66042;51.090;-115.340;2023-05-10T14:42:23;2.70;;;1.30;;